sensor_id;sensor_type;location;lat;lon;timestamp;pressure;altitude;pressure_sealevel;temperature;humidity
41312;BME280;27061;41.648;24.568;2023-02-12T00:01:08;86288.81;;;-3.28;49.12
41312;BME280;27061;41.648;24.568;2023-02-12T00:03:36;86287.56;;;-3.25;49.37
41312;BME280;27061;41.648;24.568;2023-02-12T00:06:03;86284.34;;;-3.21;48.07
41312;BME280;27061;41.648;24.568;2023-02-12T00:08:30;86287.50;;;-3.27;47.83
41312;BME280;27061;41.648;24.568;2023-02-12T00:10:57;86285.47;;;-3.26;48.39
41312;BME280;27061;41.648;24.568;2023-02-12T00:13:24;86285.66;;;-3.22;49.02
41312;BME280;27061;41.648;24.568;2023-02-12T00:15:51;86284.78;;;-3.27;48.96
41312;BME280;27061;41.648;24.568;2023-02-12T00:18:19;86294.38;;;-3.24;48.04
41312;BME280;27061;41.648;24.568;2023-02-12T00:20:45;86288.97;;;-3.24;47.99
41312;BME280;27061;41.648;24.568;2023-02-12T00:23:15;86296.41;;;-3.24;47.63
41312;BME280;27061;41.648;24.568;2023-02-12T00:25:43;86288.13;;;-3.28;47.64
41312;BME280;27061;41.648;24.568;2023-02-12T00:28:10;86286.19;;;-3.26;47.34
41312;BME280;27061;41.648;24.568;2023-02-12T00:30:36;86287.56;;;-3.25;48.81
41312;BME280;27061;41.648;24.568;2023-02-12T00:33:04;86280.63;;;-3.30;49.53
41312;BME280;27061;41.648;24.568;2023-02-12T00:35:30;86285.34;;;-3.30;49.73
41312;BME280;27061;41.648;24.568;2023-02-12T00:37:57;86278.84;;;-3.23;50.63
41312;BME280;27061;41.648;24.568;2023-02-12T00:40:24;86278.16;;;-3.24;51.12
41312;BME280;27061;41.648;24.568;2023-02-12T00:42:57;86275.25;;;-3.28;51.73
41312;BME280;27061;41.648;24.568;2023-02-12T00:45:24;86276.19;;;-3.39;52.83
41312;BME280;27061;41.648;24.568;2023-02-12T00:47:51;86271.66;;;-3.17;51.53
41312;BME280;27061;41.648;24.568;2023-02-12T00:50:18;86272.28;;;-3.18;52.74
41312;BME280;27061;41.648;24.568;2023-02-12T00:52:45;86277.00;;;-3.19;53.30
41312;BME280;27061;41.648;24.568;2023-02-12T00:55:12;86284.22;;;-3.08;53.75
41312;BME280;27061;41.648;24.568;2023-02-12T00:57:39;86277.72;;;-3.18;54.57
41312;BME280;27061;41.648;24.568;2023-02-12T01:00:06;86278.31;;;-3.20;54.74
41312;BME280;27061;41.648;24.568;2023-02-12T01:02:33;86274.91;;;-3.20;54.94
41312;BME280;27061;41.648;24.568;2023-02-12T01:05:00;86271.50;;;-3.21;54.31
41312;BME280;27061;41.648;24.568;2023-02-12T01:07:27;86275.69;;;-3.18;53.58
41312;BME280;27061;41.648;24.568;2023-02-12T01:09:55;86263.63;;;-3.15;54.01
41312;BME280;27061;41.648;24.568;2023-02-12T01:12:21;86262.56;;;-3.08;55.02
41312;BME280;27061;41.648;24.568;2023-02-12T01:14:51;86262.38;;;-3.12;56.05
41312;BME280;27061;41.648;24.568;2023-02-12T01:17:18;86248.44;;;-3.22;57.94
41312;BME280;27061;41.648;24.568;2023-02-12T01:19:45;86254.50;;;-3.06;56.66
41312;BME280;27061;41.648;24.568;2023-02-12T01:22:12;86259.91;;;-3.06;56.73
41312;BME280;27061;41.648;24.568;2023-02-12T01:24:41;86243.91;;;-3.00;56.08
41312;BME280;27061;41.648;24.568;2023-02-12T01:27:08;86246.75;;;-2.96;55.57
41312;BME280;27061;41.648;24.568;2023-02-12T01:29:35;86240.81;;;-2.92;54.92
41312;BME280;27061;41.648;24.568;2023-02-12T01:32:02;86238.19;;;-2.90;55.39
41312;BME280;27061;41.648;24.568;2023-02-12T01:34:29;86234.84;;;-2.88;55.84
41312;BME280;27061;41.648;24.568;2023-02-12T01:36:56;86228.13;;;-2.87;54.00
41312;BME280;27061;41.648;24.568;2023-02-12T01:39:23;86223.25;;;-2.91;54.20
41312;BME280;27061;41.648;24.568;2023-02-12T01:41:53;86220.13;;;-2.83;54.92
41312;BME280;27061;41.648;24.568;2023-02-12T01:44:21;86212.94;;;-2.77;56.38
41312;BME280;27061;41.648;24.568;2023-02-12T01:46:49;86212.41;;;-2.73;56.47
41312;BME280;27061;41.648;24.568;2023-02-12T01:49:24;86205.75;;;-2.70;55.55
41312;BME280;27061;41.648;24.568;2023-02-12T01:51:53;86216.03;;;-2.67;54.24
41312;BME280;27061;41.648;24.568;2023-02-12T01:54:22;86208.28;;;-2.74;54.84
41312;BME280;27061;41.648;24.568;2023-02-12T01:56:51;86223.41;;;-2.69;55.51
41312;BME280;27061;41.648;24.568;2023-02-12T01:59:18;86213.38;;;-2.65;55.96
41312;BME280;27061;41.648;24.568;2023-02-12T02:01:46;86222.47;;;-2.58;55.15
41312;BME280;27061;41.648;24.568;2023-02-12T02:04:18;86219.59;;;-2.62;54.86
41312;BME280;27061;41.648;24.568;2023-02-12T02:06:49;86213.72;;;-2.56;55.25
41312;BME280;27061;41.648;24.568;2023-02-12T02:09:18;86211.25;;;-2.68;56.27
41312;BME280;27061;41.648;24.568;2023-02-12T02:11:45;86226.19;;;-2.67;56.16
41312;BME280;27061;41.648;24.568;2023-02-12T02:14:30;86226.09;;;-2.69;57.16
41312;BME280;27061;41.648;24.568;2023-02-12T02:28:27;86223.16;;;-2.75;54.72
41312;BME280;27061;41.648;24.568;2023-02-12T02:32:53;86218.38;;;-2.77;53.10
41312;BME280;27061;41.648;24.568;2023-02-12T02:35:37;86215.97;;;-2.69;53.47
41312;BME280;27061;41.648;24.568;2023-02-12T02:38:53;86220.06;;;-2.68;53.57
41312;BME280;27061;41.648;24.568;2023-02-12T02:44:04;86221.31;;;-2.71;53.32
41312;BME280;27061;41.648;24.568;2023-02-12T02:48:55;86211.88;;;-2.87;50.92
41312;BME280;27061;41.648;24.568;2023-02-12T02:51:26;86222.94;;;-2.81;51.46
41312;BME280;27061;41.648;24.568;2023-02-12T02:56:28;86232.91;;;-2.86;50.43
41312;BME280;27061;41.648;24.568;2023-02-12T02:59:03;86229.66;;;-2.82;50.37
41312;BME280;27061;41.648;24.568;2023-02-12T03:01:42;86233.78;;;-2.81;48.86
41312;BME280;27061;41.648;24.568;2023-02-12T03:04:16;86232.47;;;-2.80;48.53
41312;BME280;27061;41.648;24.568;2023-02-12T03:09:48;86236.63;;;-2.95;49.79
41312;BME280;27061;41.648;24.568;2023-02-12T03:12:09;86242.75;;;-2.95;49.45
41312;BME280;27061;41.648;24.568;2023-02-12T03:14:39;86242.69;;;-2.79;45.23
41312;BME280;27061;41.648;24.568;2023-02-12T03:17:11;86241.69;;;-2.87;47.40
41312;BME280;27061;41.648;24.568;2023-02-12T03:19:48;86235.00;;;-2.84;47.35
41312;BME280;27061;41.648;24.568;2023-02-12T03:22:17;86232.06;;;-2.90;49.09
41312;BME280;27061;41.648;24.568;2023-02-12T03:24:48;86236.09;;;-2.91;50.75
41312;BME280;27061;41.648;24.568;2023-02-12T03:29:42;86228.88;;;-2.85;50.33
41312;BME280;27061;41.648;24.568;2023-02-12T03:32:23;86223.41;;;-2.87;49.94
41312;BME280;27061;41.648;24.568;2023-02-12T03:42:19;86220.44;;;-2.75;49.20
41312;BME280;27061;41.648;24.568;2023-02-12T03:44:56;86213.34;;;-2.67;48.48
41312;BME280;27061;41.648;24.568;2023-02-12T03:52:34;86213.78;;;-2.54;47.37
41312;BME280;27061;41.648;24.568;2023-02-12T03:55:01;86219.44;;;-2.48;46.06
41312;BME280;27061;41.648;24.568;2023-02-12T03:57:30;86213.38;;;-2.47;47.14
41312;BME280;27061;41.648;24.568;2023-02-12T04:00:00;86218.56;;;-2.53;48.83
41312;BME280;27061;41.648;24.568;2023-02-12T04:02:39;86213.47;;;-2.45;48.51
41312;BME280;27061;41.648;24.568;2023-02-12T04:05:07;86221.91;;;-2.37;48.48
41312;BME280;27061;41.648;24.568;2023-02-12T04:07:34;86224.59;;;-2.37;49.01
41312;BME280;27061;41.648;24.568;2023-02-12T04:10:03;86213.59;;;-2.41;49.55
41312;BME280;27061;41.648;24.568;2023-02-12T04:12:40;86223.06;;;-2.42;49.46
41312;BME280;27061;41.648;24.568;2023-02-12T04:17:43;86219.03;;;-2.41;51.45
41312;BME280;27061;41.648;24.568;2023-02-12T04:22:53;86213.00;;;-2.19;47.66
41312;BME280;27061;41.648;24.568;2023-02-12T04:25:31;86223.16;;;-2.20;49.51
41312;BME280;27061;41.648;24.568;2023-02-12T04:30:44;86230.22;;;-2.13;49.82
41312;BME280;27061;41.648;24.568;2023-02-12T04:33:14;86224.78;;;-2.13;50.21
41312;BME280;27061;41.648;24.568;2023-02-12T04:40:41;86224.94;;;-1.89;48.80
41312;BME280;27061;41.648;24.568;2023-02-12T04:43:09;86229.75;;;-1.88;49.47
41312;BME280;27061;41.648;24.568;2023-02-12T04:45:36;86231.47;;;-1.96;50.79
41312;BME280;27061;41.648;24.568;2023-02-12T04:48:03;86231.47;;;-1.96;50.32
41312;BME280;27061;41.648;24.568;2023-02-12T04:50:38;86226.78;;;-1.76;51.69
41312;BME280;27061;41.648;24.568;2023-02-12T04:53:05;86237.47;;;-1.80;52.42
41312;BME280;27061;41.648;24.568;2023-02-12T04:55:32;86235.69;;;-1.73;54.76
41312;BME280;27061;41.648;24.568;2023-02-12T04:57:59;86239.16;;;-1.71;55.19
41312;BME280;27061;41.648;24.568;2023-02-12T05:00:26;86239.28;;;-1.67;56.35
41312;BME280;27061;41.648;24.568;2023-02-12T05:02:53;86232.78;;;-1.60;54.46
41312;BME280;27061;41.648;24.568;2023-02-12T05:05:20;86223.28;;;-1.59;54.67
41312;BME280;27061;41.648;24.568;2023-02-12T05:07:47;86224.81;;;-1.54;52.88
41312;BME280;27061;41.648;24.568;2023-02-12T05:10:15;86231.50;;;-1.57;54.91
41312;BME280;27061;41.648;24.568;2023-02-12T05:12:41;86226.69;;;-1.38;51.47
41312;BME280;27061;41.648;24.568;2023-02-12T05:15:08;86233.56;;;-1.35;53.32
41312;BME280;27061;41.648;24.568;2023-02-12T05:17:35;86229.88;;;-1.24;51.30
41312;BME280;27061;41.648;24.568;2023-02-12T05:20:03;86228.34;;;-1.29;52.33
41312;BME280;27061;41.648;24.568;2023-02-12T05:22:30;86229.09;;;-1.27;54.52
41312;BME280;27061;41.648;24.568;2023-02-12T05:24:57;86236.59;;;-1.27;55.37
41312;BME280;27061;41.648;24.568;2023-02-12T05:27:24;86224.19;;;-1.32;54.25
41312;BME280;27061;41.648;24.568;2023-02-12T05:29:51;86231.34;;;-1.21;51.64
41312;BME280;27061;41.648;24.568;2023-02-12T05:32:18;86237.19;;;-1.09;47.75
41312;BME280;27061;41.648;24.568;2023-02-12T05:34:45;86239.97;;;-1.07;47.66
41312;BME280;27061;41.648;24.568;2023-02-12T05:37:12;86245.16;;;-0.93;46.46
41312;BME280;27061;41.648;24.568;2023-02-12T05:39:39;86251.22;;;-0.95;48.29
41312;BME280;27061;41.648;24.568;2023-02-12T05:42:06;86258.94;;;-0.87;47.39
41312;BME280;27061;41.648;24.568;2023-02-12T05:44:32;86262.06;;;-0.95;48.69
41312;BME280;27061;41.648;24.568;2023-02-12T05:46:59;86257.91;;;-0.98;48.66
41312;BME280;27061;41.648;24.568;2023-02-12T05:49:26;86259.69;;;-0.85;47.40
41312;BME280;27061;41.648;24.568;2023-02-12T05:51:53;86266.03;;;-0.78;48.24
41312;BME280;27061;41.648;24.568;2023-02-12T05:54:20;86268.88;;;-0.74;47.05
41312;BME280;27061;41.648;24.568;2023-02-12T05:56:46;86267.88;;;-0.63;46.04
41312;BME280;27061;41.648;24.568;2023-02-12T05:59:15;86265.22;;;-0.61;46.34
41312;BME280;27061;41.648;24.568;2023-02-12T06:01:43;86263.41;;;-0.54;49.60
41312;BME280;27061;41.648;24.568;2023-02-12T06:04:17;86262.56;;;-0.59;49.08
41312;BME280;27061;41.648;24.568;2023-02-12T06:06:45;86257.88;;;-0.56;51.48
41312;BME280;27061;41.648;24.568;2023-02-12T06:09:12;86266.03;;;-0.56;52.17
41312;BME280;27061;41.648;24.568;2023-02-12T06:11:39;86268.94;;;-0.50;51.64
41312;BME280;27061;41.648;24.568;2023-02-12T06:14:07;86276.47;;;-0.49;51.89
41312;BME280;27061;41.648;24.568;2023-02-12T06:16:34;86276.47;;;-0.49;50.19
41312;BME280;27061;41.648;24.568;2023-02-12T06:19:02;86281.78;;;-0.53;51.88
41312;BME280;27061;41.648;24.568;2023-02-12T06:21:30;86284.72;;;-0.47;51.47
41312;BME280;27061;41.648;24.568;2023-02-12T06:23:57;86279.75;;;-0.52;52.22
41312;BME280;27061;41.648;24.568;2023-02-12T06:26:24;86289.19;;;-0.55;52.77
41312;BME280;27061;41.648;24.568;2023-02-12T06:28:51;86283.69;;;-0.57;52.10
41312;BME280;27061;41.648;24.568;2023-02-12T06:31:26;86280.91;;;-0.59;53.08
41312;BME280;27061;41.648;24.568;2023-02-12T06:34:03;86292.00;;;-0.53;54.17
41312;BME280;27061;41.648;24.568;2023-02-12T06:36:30;86296.34;;;-0.66;53.89
41312;BME280;27061;41.648;24.568;2023-02-12T06:38:57;86296.81;;;-0.71;54.44
41312;BME280;27061;41.648;24.568;2023-02-12T06:41:24;86297.88;;;-0.81;55.06
41312;BME280;27061;41.648;24.568;2023-02-12T06:43:50;86299.44;;;-0.76;55.58
41312;BME280;27061;41.648;24.568;2023-02-12T06:46:18;86295.69;;;-0.86;56.65
41312;BME280;27061;41.648;24.568;2023-02-12T06:48:45;86310.16;;;-0.80;56.44
41312;BME280;27061;41.648;24.568;2023-02-12T06:51:16;86314.00;;;-0.87;56.52
41312;BME280;27061;41.648;24.568;2023-02-12T06:53:43;86310.59;;;-0.87;57.57
41312;BME280;27061;41.648;24.568;2023-02-12T06:56:11;86312.69;;;-0.86;58.20
41312;BME280;27061;41.648;24.568;2023-02-12T06:58:39;86305.16;;;-0.87;58.42
41312;BME280;27061;41.648;24.568;2023-02-12T07:01:10;86313.69;;;-0.97;60.50
41312;BME280;27061;41.648;24.568;2023-02-12T07:03:42;86316.59;;;-0.91;60.47
41312;BME280;27061;41.648;24.568;2023-02-12T07:06:10;86317.72;;;-0.98;60.66
41312;BME280;27061;41.648;24.568;2023-02-12T07:08:36;86320.78;;;-0.88;60.85
41312;BME280;27061;41.648;24.568;2023-02-12T07:11:04;86331.66;;;-0.88;60.79
41312;BME280;27061;41.648;24.568;2023-02-12T07:13:31;86326.28;;;-0.86;60.65
41312;BME280;27061;41.648;24.568;2023-02-12T07:16:06;86334.69;;;-0.78;61.03
41312;BME280;27061;41.648;24.568;2023-02-12T07:18:38;86330.22;;;-0.69;60.61
41312;BME280;27061;41.648;24.568;2023-02-12T07:21:05;86342.34;;;-0.72;60.85
41312;BME280;27061;41.648;24.568;2023-02-12T07:23:33;86335.25;;;-0.81;62.31
41312;BME280;27061;41.648;24.568;2023-02-12T07:26:04;86336.50;;;-0.64;61.46
41312;BME280;27061;41.648;24.568;2023-02-12T07:28:31;86327.72;;;-0.83;62.38
41312;BME280;27061;41.648;24.568;2023-02-12T07:31:05;86325.47;;;-0.68;62.70
41312;BME280;27061;41.648;24.568;2023-02-12T07:33:34;86326.88;;;-0.67;63.20
41312;BME280;27061;41.648;24.568;2023-02-12T07:36:01;86327.84;;;-0.59;63.72
41312;BME280;27061;41.648;24.568;2023-02-12T07:38:28;86327.75;;;-0.61;64.10
41312;BME280;27061;41.648;24.568;2023-02-12T07:41:04;86324.84;;;-0.67;65.30
41312;BME280;27061;41.648;24.568;2023-02-12T07:43:34;86327.69;;;-0.63;65.54
41312;BME280;27061;41.648;24.568;2023-02-12T07:46:07;86327.13;;;-0.59;65.45
41312;BME280;27061;41.648;24.568;2023-02-12T07:48:34;86320.19;;;-0.64;66.06
41312;BME280;27061;41.648;24.568;2023-02-12T07:51:02;86320.88;;;-0.64;66.18
41312;BME280;27061;41.648;24.568;2023-02-12T07:53:29;86318.91;;;-0.61;67.10
41312;BME280;27061;41.648;24.568;2023-02-12T07:56:03;86315.00;;;-0.56;66.51
41312;BME280;27061;41.648;24.568;2023-02-12T07:58:30;86314.75;;;-0.64;67.36
41312;BME280;27061;41.648;24.568;2023-02-12T08:00:56;86320.56;;;-0.52;67.46
41312;BME280;27061;41.648;24.568;2023-02-12T08:03:23;86313.75;;;-0.53;68.29
41312;BME280;27061;41.648;24.568;2023-02-12T08:05:50;86315.69;;;-0.56;68.25
41312;BME280;27061;41.648;24.568;2023-02-12T08:08:17;86306.44;;;-0.68;69.84
41312;BME280;27061;41.648;24.568;2023-02-12T08:10:44;86305.19;;;-0.65;70.20
41312;BME280;27061;41.648;24.568;2023-02-12T08:13:11;86293.81;;;-0.60;70.46
41312;BME280;27061;41.648;24.568;2023-02-12T08:15:37;86307.09;;;-0.48;70.27
41312;BME280;27061;41.648;24.568;2023-02-12T08:18:04;86310.97;;;-0.55;70.19
41312;BME280;27061;41.648;24.568;2023-02-12T08:20:32;86304.38;;;-0.48;70.63
41312;BME280;27061;41.648;24.568;2023-02-12T08:22:59;86323.59;;;-0.42;70.62
41312;BME280;27061;41.648;24.568;2023-02-12T08:25:26;86319.81;;;-0.33;70.82
41312;BME280;27061;41.648;24.568;2023-02-12T08:27:53;86320.06;;;-0.25;69.42
41312;BME280;27061;41.648;24.568;2023-02-12T08:30:20;86317.66;;;-0.15;69.27
41312;BME280;27061;41.648;24.568;2023-02-12T08:32:53;86314.38;;;-0.11;69.70
41312;BME280;27061;41.648;24.568;2023-02-12T08:35:20;86318.13;;;-0.01;69.47
41312;BME280;27061;41.648;24.568;2023-02-12T08:37:47;86316.88;;;0.05;68.33
41312;BME280;27061;41.648;24.568;2023-02-12T08:40:14;86311.63;;;0.11;68.00
41312;BME280;27061;41.648;24.568;2023-02-12T08:42:40;86307.00;;;0.15;68.64
41312;BME280;27061;41.648;24.568;2023-02-12T08:45:08;86312.03;;;0.25;66.89
41312;BME280;27061;41.648;24.568;2023-02-12T08:47:35;86314.97;;;0.31;66.75
41312;BME280;27061;41.648;24.568;2023-02-12T08:50:01;86312.28;;;0.33;67.96
41312;BME280;27061;41.648;24.568;2023-02-12T08:52:29;86321.34;;;0.40;67.62
41312;BME280;27061;41.648;24.568;2023-02-12T08:54:56;86320.16;;;0.47;66.55
41312;BME280;27061;41.648;24.568;2023-02-12T08:57:23;86331.69;;;0.45;66.47
41312;BME280;27061;41.648;24.568;2023-02-12T08:59:50;86333.28;;;0.52;65.82
41312;BME280;27061;41.648;24.568;2023-02-12T09:02:16;86330.88;;;0.64;65.37
41312;BME280;27061;41.648;24.568;2023-02-12T09:04:43;86330.16;;;0.62;65.49
41312;BME280;27061;41.648;24.568;2023-02-12T09:07:10;86321.44;;;0.67;65.52
41312;BME280;27061;41.648;24.568;2023-02-12T09:09:37;86333.97;;;0.77;66.47
41312;BME280;27061;41.648;24.568;2023-02-12T09:12:04;86330.25;;;0.90;66.08
41312;BME280;27061;41.648;24.568;2023-02-12T09:14:31;86345.91;;;0.89;65.57
41312;BME280;27061;41.648;24.568;2023-02-12T09:16:58;86337.16;;;0.93;64.81
41312;BME280;27061;41.648;24.568;2023-02-12T09:19:25;86348.13;;;0.95;62.59
41312;BME280;27061;41.648;24.568;2023-02-12T09:21:52;86344.16;;;1.00;63.15
41312;BME280;27061;41.648;24.568;2023-02-12T09:24:22;86344.50;;;1.12;61.69
41312;BME280;27061;41.648;24.568;2023-02-12T09:26:49;86336.03;;;1.02;63.02
41312;BME280;27061;41.648;24.568;2023-02-12T09:29:15;86342.88;;;1.03;63.08
41312;BME280;27061;41.648;24.568;2023-02-12T09:31:42;86347.56;;;1.00;61.55
41312;BME280;27061;41.648;24.568;2023-02-12T09:34:09;86344.28;;;1.04;62.16
41312;BME280;27061;41.648;24.568;2023-02-12T09:36:36;86348.50;;;1.09;63.18
41312;BME280;27061;41.648;24.568;2023-02-12T09:39:03;86343.53;;;1.01;61.42
41312;BME280;27061;41.648;24.568;2023-02-12T09:44:18;86354.78;;;0.90;63.54
41312;BME280;27061;41.648;24.568;2023-02-12T09:49:22;86346.81;;;0.98;61.99
41312;BME280;27061;41.648;24.568;2023-02-12T09:51:54;86347.50;;;0.98;61.93
41312;BME280;27061;41.648;24.568;2023-02-12T09:54:22;86349.44;;;0.94;63.03
41312;BME280;27061;41.648;24.568;2023-02-12T09:56:52;86353.56;;;0.95;65.59
41312;BME280;27061;41.648;24.568;2023-02-12T09:59:34;86345.28;;;0.91;64.82
41312;BME280;27061;41.648;24.568;2023-02-12T10:02:01;86352.91;;;0.96;64.62
41312;BME280;27061;41.648;24.568;2023-02-12T10:04:28;86340.03;;;0.99;63.39
41312;BME280;27061;41.648;24.568;2023-02-12T10:07:42;86341.59;;;1.06;62.50
41312;BME280;27061;41.648;24.568;2023-02-12T10:15:34;86345.22;;;0.89;64.04
41312;BME280;27061;41.648;24.568;2023-02-12T10:18:08;86347.47;;;0.96;64.93
41312;BME280;27061;41.648;24.568;2023-02-12T10:23:39;86343.78;;;1.12;63.20
41312;BME280;27061;41.648;24.568;2023-02-12T10:26:17;86344.50;;;1.12;65.66
41312;BME280;27061;41.648;24.568;2023-02-12T10:28:44;86341.75;;;1.12;65.70
41312;BME280;27061;41.648;24.568;2023-02-12T10:33:43;86351.22;;;1.09;64.76
41312;BME280;27061;41.648;24.568;2023-02-12T10:36:54;86348.44;;;1.07;63.23
41312;BME280;27061;41.648;24.568;2023-02-12T10:39:02;86342.03;;;1.22;63.31
41312;BME280;27061;41.648;24.568;2023-02-12T10:41:31;86344.81;;;1.24;62.95
41312;BME280;27061;41.648;24.568;2023-02-12T10:44:02;86347.91;;;1.13;63.80
41312;BME280;27061;41.648;24.568;2023-02-12T10:46:30;86352.81;;;1.18;65.17
41312;BME280;27061;41.648;24.568;2023-02-12T10:48:57;86358.59;;;1.30;63.83
41312;BME280;27061;41.648;24.568;2023-02-12T10:53:52;86367.53;;;1.33;63.83
41312;BME280;27061;41.648;24.568;2023-02-12T10:56:22;86361.13;;;1.22;63.86
41312;BME280;27061;41.648;24.568;2023-02-12T10:58:59;86368.03;;;1.25;63.06
41312;BME280;27061;41.648;24.568;2023-02-12T11:01:36;86372.88;;;1.29;64.12
41312;BME280;27061;41.648;24.568;2023-02-12T11:04:46;86363.97;;;1.26;62.90
41312;BME280;27061;41.648;24.568;2023-02-12T11:06:56;86366.72;;;1.28;63.21
41312;BME280;27061;41.648;24.568;2023-02-12T11:09:28;86369.53;;;1.30;65.01
41312;BME280;27061;41.648;24.568;2023-02-12T11:12:01;86377.88;;;1.36;65.86
41312;BME280;27061;41.648;24.568;2023-02-12T11:14:29;86373.97;;;1.43;65.46
41312;BME280;27061;41.648;24.568;2023-02-12T11:16:57;86376.91;;;1.52;63.88
41312;BME280;27061;41.648;24.568;2023-02-12T11:19:27;86376.81;;;1.48;65.56
41312;BME280;27061;41.648;24.568;2023-02-12T11:22:10;86380.97;;;1.51;64.52
41312;BME280;27061;41.648;24.568;2023-02-12T11:24:44;86372.47;;;1.64;63.42
41312;BME280;27061;41.648;24.568;2023-02-12T11:29:39;86386.22;;;1.42;65.76
41312;BME280;27061;41.648;24.568;2023-02-12T11:32:08;86382.28;;;1.48;63.71
41312;BME280;27061;41.648;24.568;2023-02-12T11:34:35;86373.00;;;1.59;64.80
41312;BME280;27061;41.648;24.568;2023-02-12T11:37:02;86382.38;;;1.52;64.37
41312;BME280;27061;41.648;24.568;2023-02-12T11:39:34;86376.53;;;1.63;63.14
41312;BME280;27061;41.648;24.568;2023-02-12T11:42:02;86366.09;;;1.56;65.78
41312;BME280;27061;41.648;24.568;2023-02-12T11:44:35;86370.75;;;1.77;67.14
41312;BME280;27061;41.648;24.568;2023-02-12T11:47:07;86375.81;;;1.89;65.67
41312;BME280;27061;41.648;24.568;2023-02-12T11:49:38;86369.72;;;1.90;65.02
41312;BME280;27061;41.648;24.568;2023-02-12T11:52:43;86370.00;;;2.02;64.86
41312;BME280;27061;41.648;24.568;2023-02-12T11:55:04;86364.53;;;2.02;63.69
41312;BME280;27061;41.648;24.568;2023-02-12T12:00:04;86378.41;;;2.10;63.03
41312;BME280;27061;41.648;24.568;2023-02-12T12:02:33;86373.06;;;2.16;62.64
41312;BME280;27061;41.648;24.568;2023-02-12T12:05:08;86372.56;;;2.24;63.06
41312;BME280;27061;41.648;24.568;2023-02-12T12:07:38;86375.59;;;2.36;62.80
41312;BME280;27061;41.648;24.568;2023-02-12T12:10:09;86375.00;;;2.40;62.97
41312;BME280;27061;41.648;24.568;2023-02-12T12:12:44;86370.94;;;2.41;63.00
41312;BME280;27061;41.648;24.568;2023-02-12T12:15:19;86375.22;;;2.50;59.67
41312;BME280;27061;41.648;24.568;2023-02-12T12:23:56;86367.44;;;2.68;60.78
41312;BME280;27061;41.648;24.568;2023-02-12T12:26:28;86368.94;;;2.73;62.08
41312;BME280;27061;41.648;24.568;2023-02-12T12:31:45;86369.91;;;2.88;59.29
41312;BME280;27061;41.648;24.568;2023-02-12T12:34:23;86373.44;;;2.92;60.81
41312;BME280;27061;41.648;24.568;2023-02-12T12:54:58;86391.97;;;3.28;58.68
41312;BME280;27061;41.648;24.568;2023-02-12T13:08:12;86409.56;;;3.19;59.20
41312;BME280;27061;41.648;24.568;2023-02-12T13:13:19;86405.47;;;3.20;58.75
41312;BME280;27061;41.648;24.568;2023-02-12T13:15:56;86401.44;;;3.23;58.86
41312;BME280;27061;41.648;24.568;2023-02-12T13:21:19;86415.81;;;3.23;58.45
41312;BME280;27061;41.648;24.568;2023-02-12T13:28:52;86424.84;;;3.30;56.72
41312;BME280;27061;41.648;24.568;2023-02-12T13:31:24;86418.66;;;3.27;57.58
41312;BME280;27061;41.648;24.568;2023-02-12T13:34:03;86420.63;;;3.25;57.59
41312;BME280;27061;41.648;24.568;2023-02-12T13:36:34;86430.31;;;3.30;57.92
41312;BME280;27061;41.648;24.568;2023-02-12T13:41:40;86435.78;;;3.30;58.19
41312;BME280;27061;41.648;24.568;2023-02-12T13:44:21;86433.78;;;3.33;58.80
41312;BME280;27061;41.648;24.568;2023-02-12T13:52:28;86444.09;;;3.34;59.42
41312;BME280;27061;41.648;24.568;2023-02-12T13:57:23;86449.53;;;3.32;59.58
41312;BME280;27061;41.648;24.568;2023-02-12T13:59:53;86448.13;;;3.31;58.99
41312;BME280;27061;41.648;24.568;2023-02-12T14:05:27;86450.91;;;3.33;59.48
41312;BME280;27061;41.648;24.568;2023-02-12T14:07:48;86459.69;;;3.27;59.33
41312;BME280;27061;41.648;24.568;2023-02-12T14:10:23;86454.72;;;3.20;59.45
41312;BME280;27061;41.648;24.568;2023-02-12T14:12:51;86462.38;;;3.25;59.67
41312;BME280;27061;41.648;24.568;2023-02-12T14:15:29;86465.59;;;3.16;60.10
41312;BME280;27061;41.648;24.568;2023-02-12T14:20:29;86476.66;;;3.22;60.14
41312;BME280;27061;41.648;24.568;2023-02-12T14:30:24;86477.25;;;3.16;59.21
41312;BME280;27061;41.648;24.568;2023-02-12T14:33:07;86481.78;;;3.06;56.20
41312;BME280;27061;41.648;24.568;2023-02-12T14:35:39;86481.91;;;2.82;58.23
41312;BME280;27061;41.648;24.568;2023-02-12T14:43:00;86498.06;;;2.72;58.68
41312;BME280;27061;41.648;24.568;2023-02-12T14:45:28;86503.53;;;2.72;58.39
41312;BME280;27061;41.648;24.568;2023-02-12T14:47:56;86507.91;;;2.55;58.94
41312;BME280;27061;41.648;24.568;2023-02-12T14:50:40;86509.41;;;2.60;57.13
41312;BME280;27061;41.648;24.568;2023-02-12T14:53:18;86514.06;;;2.55;58.89
41312;BME280;27061;41.648;24.568;2023-02-12T14:55:47;86490.69;;;2.22;58.81
41312;BME280;27061;41.648;24.568;2023-02-12T14:58:18;86515.16;;;2.44;58.13
41312;BME280;27061;41.648;24.568;2023-02-12T15:00:47;86520.03;;;2.48;56.39
41312;BME280;27061;41.648;24.568;2023-02-12T15:03:16;86532.22;;;2.43;58.44
41312;BME280;27061;41.648;24.568;2023-02-12T15:06:01;86530.06;;;2.39;59.69
41312;BME280;27061;41.648;24.568;2023-02-12T15:09:05;86523.91;;;2.39;59.40
41312;BME280;27061;41.648;24.568;2023-02-12T15:21:31;86552.31;;;2.28;59.29
41312;BME280;27061;41.648;24.568;2023-02-12T15:24:12;86558.94;;;2.20;60.14
41312;BME280;27061;41.648;24.568;2023-02-12T15:26:40;86564.19;;;2.12;59.41
41312;BME280;27061;41.648;24.568;2023-02-12T15:29:15;86562.81;;;2.11;59.76
41312;BME280;27061;41.648;24.568;2023-02-12T15:31:48;86570.81;;;2.05;59.56
41312;BME280;27061;41.648;24.568;2023-02-12T15:34:17;86574.31;;;2.08;58.64
41312;BME280;27061;41.648;24.568;2023-02-12T15:36:47;86580.75;;;1.95;57.64
41312;BME280;27061;41.648;24.568;2023-02-12T15:39:16;86579.56;;;2.00;58.33
41312;BME280;27061;41.648;24.568;2023-02-12T15:41:44;86578.16;;;1.99;58.18
41312;BME280;27061;41.648;24.568;2023-02-12T15:47:09;86593.63;;;1.90;57.28
41312;BME280;27061;41.648;24.568;2023-02-12T15:49:51;86598.78;;;1.80;56.57
41312;BME280;27061;41.648;24.568;2023-02-12T15:52:32;86619.94;;;1.79;58.04
41312;BME280;27061;41.648;24.568;2023-02-12T15:55:01;86624.88;;;1.85;55.48